Time;durP1;ratioP1;P1;durP2;ratioP2;P2;SDS_P1;SDS_P2;PMS_P1;PMS_P2;Temp;Humidity;BMP_temperature;BMP_pressure;BME280_temperature;BME280_humidity;BME280_pressure;Samples;Min_cycle;Max_cycle;Signal;HPM_P1;HPM_P2
2023/08/02 04:00:47;;;;;;;2.70;1.07;;;15.60;99.90;;;;;;5723274;23;20503;-73
2023/08/02 04:03:14;;;;;;;1.53;1.53;;;15.60;99.90;;;;;;4919621;29;20475;-74
2023/08/02 04:05:40;;;;;;;3.80;1.60;;;15.60;99.90;;;;;;4925554;29;20462;-75
2023/08/02 04:08:07;;;;;;;1.13;1.10;;;15.60;99.90;;;;;;4929608;29;20469;-73
2023/08/02 04:10:36;;;;;;;2.20;1.73;;;15.60;99.90;;;;;;4927611;29;20490;-73
2023/08/02 04:13:02;;;;;;;1.70;1.60;;;15.60;99.90;;;;;;4912357;29;20478;-73
2023/08/02 04:15:31;;;;;;;4.10;1.80;;;15.70;99.90;;;;;;4913153;29;20542;-73
2023/08/02 04:17:59;;;;;;;1.50;1.40;;;15.70;99.90;;;;;;4913693;29;20493;-73
2023/08/02 04:20:26;;;;;;;4.53;1.33;;;15.60;99.90;;;;;;4913293;29;20466;-72
2023/08/02 04:22:53;;;;;;;1.50;1.50;;;15.70;99.90;;;;;;4912041;29;20471;-72
2023/08/02 04:25:19;;;;;;;1.87;1.77;;;15.70;99.90;;;;;;4912137;29;20467;-72
2023/08/02 04:27:46;;;;;;;7.30;2.27;;;15.70;99.90;;;;;;4904574;29;20495;-75
2023/08/02 04:30:13;;;;;;;1.20;1.20;;;15.80;99.90;;;;;;4912804;29;20486;-72
2023/08/02 04:32:40;;;;;;;1.20;1.20;;;15.80;99.90;;;;;;4911955;29;20474;-73
2023/08/02 04:35:08;;;;;;;4.20;1.87;;;15.80;99.90;;;;;;4912180;29;20474;-72
2023/08/02 04:37:36;;;;;;;1.90;1.80;;;15.80;99.90;;;;;;4913222;29;21978;-71
2023/08/02 04:40:03;;;;;;;2.47;2.13;;;15.80;99.90;;;;;;4912357;29;20466;-72
2023/08/02 04:42:30;;;;;;;2.50;1.10;;;15.80;99.90;;;;;;4912186;29;20501;-73
2023/08/02 04:44:57;;;;;;;1.90;1.90;;;15.90;99.90;;;;;;4913321;29;20477;-72
2023/08/02 04:47:23;;;;;;;1.67;1.57;;;15.90;99.90;;;;;;4908909;29;20470;-74
2023/08/02 04:49:50;;;;;;;3.33;1.47;;;15.90;99.90;;;;;;4908260;29;20490;-72
2023/08/02 04:52:18;;;;;;;2.20;1.70;;;16.00;99.90;;;;;;4911401;29;20498;-72
2023/08/02 04:54:45;;;;;;;7.63;1.60;;;16.00;99.90;;;;;;4912678;29;20489;-73
2023/08/02 04:57:12;;;;;;;1.50;1.50;;;16.00;99.90;;;;;;4910666;29;20479;-72
2023/08/02 04:59:39;;;;;;;1.47;1.37;;;16.10;99.90;;;;;;4908884;29;20638;-72
2023/08/02 05:02:05;;;;;;;1.60;1.27;;;16.10;99.90;;;;;;4911759;29;20501;-72
2023/08/02 05:04:32;;;;;;;1.13;1.13;;;16.10;99.90;;;;;;4910792;29;20580;-73
2023/08/02 05:06:59;;;;;;;3.90;1.30;;;16.20;99.90;;;;;;4910903;29;20547;-72
2023/08/02 05:09:27;;;;;;;2.57;2.37;;;16.30;99.90;;;;;;4912192;29;20577;-72
2023/08/02 05:11:54;;;;;;;1.23;1.13;;;16.40;99.90;;;;;;4910999;29;20510;-72
2023/08/02 05:14:21;;;;;;;1.30;1.30;;;16.40;99.90;;;;;;4910967;29;20562;-72
2023/08/02 05:16:48;;;;;;;0.93;0.93;;;16.50;99.90;;;;;;4912527;29;20824;-71
2023/08/02 05:19:14;;;;;;;1.27;1.17;;;16.50;99.90;;;;;;4909776;29;20471;-74
2023/08/02 05:21:41;;;;;;;1.70;1.70;;;16.60;99.90;;;;;;4912164;29;20492;-72
2023/08/02 05:24:08;;;;;;;1.47;1.40;;;16.60;99.90;;;;;;4913093;29;20525;-71
2023/08/02 05:26:36;;;;;;;2.40;1.50;;;16.70;99.90;;;;;;4913525;29;20467;-72
2023/08/02 05:29:03;;;;;;;1.20;1.17;;;16.80;99.90;;;;;;4911127;29;20475;-72
2023/08/02 05:31:30;;;;;;;1.63;1.53;;;16.80;99.90;;;;;;4912323;29;20490;-71
2023/08/02 05:33:56;;;;;;;1.17;1.17;;;16.80;99.90;;;;;;4912789;29;20786;-72
2023/08/02 05:36:23;;;;;;;2.67;1.60;;;16.80;99.90;;;;;;4914815;29;20821;-73
2023/08/02 05:38:50;;;;;;;2.33;1.33;;;16.80;99.90;;;;;;4915709;29;20553;-72
2023/08/02 05:41:16;;;;;;;1.43;0.97;;;16.80;99.90;;;;;;4916959;29;20486;-72
2023/08/02 05:43:44;;;;;;;1.40;1.30;;;16.80;99.90;;;;;;4916543;29;20482;-73
2023/08/02 05:46:11;;;;;;;5.93;1.53;;;16.80;99.90;;;;;;4916200;29;20616;-73
2023/08/02 05:48:38;;;;;;;0.80;0.80;;;16.80;99.90;;;;;;4915723;29;20466;-72
2023/08/02 05:51:05;;;;;;;0.87;0.83;;;16.80;99.90;;;;;;4916576;29;20498;-71
2023/08/02 05:53:31;;;;;;;3.03;1.30;;;16.80;99.90;;;;;;4916666;29;20477;-73
2023/08/02 05:55:58;;;;;;;2.00;1.17;;;16.80;99.90;;;;;;4916617;29;20462;-72
2023/08/02 05:58:25;;;;;;;1.73;1.63;;;16.90;99.90;;;;;;4912846;29;20533;-71
2023/08/02 06:00:53;;;;;;;1.63;1.53;;;17.00;99.90;;;;;;4913756;29;20561;-72
2023/08/02 06:03:21;;;;;;;1.80;1.70;;;17.10;99.90;;;;;;4916658;29;20443;-71
2023/08/02 06:05:48;;;;;;;1.90;1.70;;;17.20;99.90;;;;;;4915795;29;20473;-72
2023/08/02 06:08:15;;;;;;;4.70;1.13;;;17.20;99.90;;;;;;4915245;29;20479;-72
2023/08/02 06:10:42;;;;;;;2.20;1.00;;;17.30;99.90;;;;;;4914758;29;20546;-73
2023/08/02 06:13:08;;;;;;;1.43;1.43;;;17.30;99.90;;;;;;4915931;29;20474;-72
2023/08/02 06:15:35;;;;;;;2.93;1.73;;;17.30;99.90;;;;;;4915639;29;20926;-72
2023/08/02 06:18:03;;;;;;;1.30;1.30;;;17.30;99.90;;;;;;4914084;29;20470;-74
2023/08/02 06:20:30;;;;;;;3.03;1.67;;;17.30;99.90;;;;;;4914389;29;20459;-73
2023/08/02 06:22:57;;;;;;;1.50;1.23;;;17.30;99.90;;;;;;4914699;29;20523;-72
2023/08/02 06:25:23;;;;;;;1.30;1.10;;;17.40;99.90;;;;;;4912561;29;20481;-72
2023/08/02 06:27:50;;;;;;;5.20;1.30;;;17.40;99.90;;;;;;4912420;29;20471;-73
2023/08/02 06:30:17;;;;;;;2.40;1.40;;;17.50;99.90;;;;;;4914119;29;20494;-73
2023/08/02 06:32:43;;;;;;;5.70;1.73;;;17.60;99.90;;;;;;4914168;29;20508;-72
2023/08/02 06:35:13;;;;;;;1.93;1.83;;;17.90;99.90;;;;;;4914904;29;20478;-72
2023/08/02 06:37:39;;;;;;;2.00;0.93;;;18.20;99.90;;;;;;4916021;29;20490;-71
2023/08/02 06:40:07;;;;;;;3.30;1.63;;;18.40;99.90;;;;;;4915183;29;20539;-72
2023/08/02 06:42:34;;;;;;;1.17;1.17;;;18.50;99.90;;;;;;4915633;29;20867;-72
2023/08/02 06:45:01;;;;;;;2.20;1.10;;;18.60;99.90;;;;;;4913365;29;20550;-73
2023/08/02 06:47:27;;;;;;;8.13;1.57;;;18.50;99.90;;;;;;4913839;29;20475;-72
2023/08/02 06:49:54;;;;;;;2.67;1.10;;;18.40;99.90;;;;;;4917033;29;20472;-72
2023/08/02 06:52:22;;;;;;;2.10;0.97;;;18.40;99.90;;;;;;4917270;29;20492;-73
2023/08/02 06:54:52;;;;;;;1.50;1.27;;;18.40;99.90;;;;;;4916396;29;20470;-72
2023/08/02 06:57:22;;;;;;;1.30;1.30;;;18.40;99.90;;;;;;4918349;29;20474;-73
2023/08/02 06:59:49;;;;;;;0.90;0.90;;;18.50;99.90;;;;;;4917932;29;20464;-73
2023/08/02 07:02:16;;;;;;;2.50;1.47;;;18.70;99.90;;;;;;4916859;29;20523;-72
2023/08/02 07:04:42;;;;;;;1.23;1.23;;;18.90;99.90;;;;;;4918182;29;20477;-72
2023/08/02 07:07:08;;;;;;;6.03;1.27;;;19.10;99.90;;;;;;4918267;29;20468;-72
2023/08/02 07:09:36;;;;;;;1.10;1.00;;;19.20;99.90;;;;;;4917330;29;21017;-72
2023/08/02 07:12:03;;;;;;;1.97;1.17;;;19.40;99.90;;;;;;4918526;29;20227;-71
2023/08/02 07:14:30;;;;;;;3.37;0.97;;;19.60;99.90;;;;;;4917455;29;21211;-73
2023/08/02 07:16:57;;;;;;;1.17;1.13;;;19.60;99.90;;;;;;4918542;29;20477;-72
2023/08/02 07:19:23;;;;;;;1.70;1.60;;;19.60;99.90;;;;;;4916562;29;20554;-73
2023/08/02 07:21:50;;;;;;;3.50;1.13;;;19.70;99.90;;;;;;4917237;29;20907;-73
2023/08/02 07:24:17;;;;;;;1.30;1.30;;;19.70;99.90;;;;;;4914936;29;20490;-72
2023/08/02 07:26:45;;;;;;;1.30;1.30;;;19.80;99.90;;;;;;4915296;29;20958;-72
2023/08/02 07:29:12;;;;;;;1.40;1.40;;;19.90;99.90;;;;;;4909023;29;20470;-73
2023/08/02 07:31:39;;;;;;;5.37;1.43;;;20.00;99.90;;;;;;4915918;29;20500;-72
2023/08/02 07:34:05;;;;;;;1.20;1.20;;;20.20;99.90;;;;;;4914225;29;20506;-71
2023/08/02 07:36:32;;;;;;;1.93;1.03;;;20.00;99.90;;;;;;4915520;29;20473;-71
2023/08/02 07:38:59;;;;;;;1.43;1.30;;;19.90;99.90;;;;;;4916254;29;20473;-72
2023/08/02 07:41:27;;;;;;;1.30;1.30;;;19.70;99.90;;;;;;4915657;29;20487;-71
2023/08/02 07:43:55;;;;;;;2.90;1.30;;;19.60;99.90;;;;;;4915011;29;20802;-72
2023/08/02 07:46:23;;;;;;;0.93;0.93;;;19.60;99.90;;;;;;4915504;29;20467;-71
2023/08/02 07:48:51;;;;;;;1.13;1.13;;;19.60;99.90;;;;;;4915108;29;20494;-72
2023/08/02 07:51:18;;;;;;;1.30;1.30;;;20.30;99.90;;;;;;4914837;29;20578;-72
2023/08/02 07:53:45;;;;;;;1.67;1.27;;;20.80;99.90;;;;;;4913307;29;20472;-72
2023/08/02 07:56:11;;;;;;;1.10;1.10;;;21.00;99.90;;;;;;4914025;29;20471;-71
2023/08/02 07:58:38;;;;;;;3.20;1.37;;;21.10;99.90;;;;;;4914315;29;20593;-71
2023/08/02 08:01:07;;;;;;;1.70;0.93;;;21.30;99.90;;;;;;4910847;29;20510;-72
2023/08/02 08:03:34;;;;;;;1.17;1.17;;;21.30;99.90;;;;;;4914357;29;20467;-72
2023/08/02 08:06:08;;;;;;;1.20;1.20;;;21.50;99.90;;;;;;4911837;29;20475;-72
2023/08/02 08:08:35;;;;;;;1.60;1.50;;;21.30;99.90;;;;;;4912070;29;20478;-71
2023/08/02 08:11:02;;;;;;;1.23;1.13;;;21.00;99.90;;;;;;4914102;29;20574;-72
2023/08/02 08:13:29;;;;;;;3.40;1.60;;;21.10;99.90;;;;;;4912643;29;20478;-71
2023/08/02 08:15:55;;;;;;;2.40;1.30;;;21.00;99.90;;;;;;4911170;29;20479;-70
2023/08/02 08:18:24;;;;;;;1.40;1.33;;;21.00;99.90;;;;;;4914565;29;20804;-72
2023/08/02 08:20:50;;;;;;;1.80;1.60;;;20.80;99.90;;;;;;4914275;29;20972;-72
2023/08/02 08:23:17;;;;;;;1.60;1.53;;;20.60;99.90;;;;;;4913968;29;20529;-70
2023/08/02 08:25:44;;;;;;;3.23;2.07;;;20.60;99.90;;;;;;4913621;29;20516;-72
2023/08/02 08:28:10;;;;;;;2.10;1.97;;;20.60;99.90;;;;;;4913210;29;20470;-73
2023/08/02 08:30:37;;;;;;;2.40;2.20;;;20.70;99.90;;;;;;4913699;29;20496;-71
2023/08/02 08:33:04;;;;;;;1.97;1.80;;;20.80;99.90;;;;;;4910873;29;20540;-72
2023/08/02 08:35:34;;;;;;;3.60;1.50;;;20.90;99.90;;;;;;4909733;29;20480;-72
2023/08/02 08:38:01;;;;;;;1.10;1.10;;;20.90;99.90;;;;;;4913857;29;20470;-72
2023/08/02 08:40:27;;;;;;;1.00;1.00;;;20.90;99.90;;;;;;4913489;29;20986;-72
2023/08/02 08:42:56;;;;;;;1.40;1.40;;;20.80;99.90;;;;;;4908792;29;20594;-71
2023/08/02 08:45:24;;;;;;;3.83;2.87;;;20.90;99.90;;;;;;4907695;29;20475;-71
2023/08/02 08:47:52;;;;;;;4.13;1.77;;;21.00;99.90;;;;;;4912422;29;20467;-71
2023/08/02 08:50:20;;;;;;;1.47;1.47;;;21.00;99.90;;;;;;4910983;29;20530;-72
2023/08/02 08:52:51;;;;;;;1.70;1.60;;;21.10;99.90;;;;;;4911966;29;20477;-71
2023/08/02 08:55:18;;;;;;;1.50;1.50;;;21.10;99.90;;;;;;4913357;29;20604;-71
2023/08/02 08:57:46;;;;;;;1.70;1.67;;;21.10;99.90;;;;;;4913350;29;20555;-72
2023/08/02 09:00:14;;;;;;;2.93;1.50;;;21.20;99.90;;;;;;4913125;29;20512;-71
2023/08/02 09:02:43;;;;;;;2.10;2.00;;;21.40;99.90;;;;;;4907069;29;20544;-70
2023/08/02 09:05:11;;;;;;;1.47;1.10;;;21.40;99.90;;;;;;4904455;29;20526;-71
2023/08/02 09:07:37;;;;;;;4.30;2.07;;;21.30;99.90;;;;;;4912637;29;20464;-71
2023/08/02 09:10:06;;;;;;;2.43;1.90;;;21.20;99.90;;;;;;4913358;29;20527;-72
2023/08/02 09:12:44;;;;;;;2.30;1.73;;;21.20;99.90;;;;;;4915925;29;20502;-72
2023/08/02 09:15:11;;;;;;;1.67;1.57;;;21.00;99.90;;;;;;4914966;29;20550;-71
2023/08/02 09:17:49;;;;;;;1.60;1.53;;;20.90;99.90;;;;;;4915166;29;20834;-72
2023/08/02 09:20:17;;;;;;;1.00;0.90;;;20.80;99.90;;;;;;4916484;29;20463;-72
2023/08/02 09:22:43;;;;;;;1.70;1.70;;;20.80;99.90;;;;;;4917124;29;20471;-72
2023/08/02 09:25:21;;;;;;;2.00;1.30;;;20.80;99.90;;;;;;4912839;29;20504;-72
2023/08/02 09:27:48;;;;;;;1.87;1.77;;;20.70;99.90;;;;;;4913905;29;20477;-70
2023/08/02 09:30:24;;;;;;;1.20;1.20;;;20.70;99.90;;;;;;4916229;29;20482;-72
2023/08/02 09:33:00;;;;;;;1.70;1.70;;;20.80;99.90;;;;;;4915726;29;20624;-72
2023/08/02 09:35:27;;;;;;;2.77;1.50;;;20.90;99.90;;;;;;4915593;29;20552;-72
2023/08/02 09:37:53;;;;;;;3.17;1.33;;;21.10;99.90;;;;;;4917247;29;20489;-71
2023/08/02 09:40:34;;;;;;;1.53;1.53;;;21.10;99.90;;;;;;4916756;29;21033;-71
2023/08/02 09:43:02;;;;;;;2.20;1.73;;;21.10;99.90;;;;;;4913600;29;20613;-71
2023/08/02 09:45:32;;;;;;;2.73;1.53;;;21.00;99.90;;;;;;4915174;29;20925;-68
2023/08/02 09:47:59;;;;;;;4.10;1.50;;;20.90;99.90;;;;;;4915172;29;20466;-71
2023/08/02 09:50:27;;;;;;;1.70;1.50;;;20.90;99.90;;;;;;4917696;29;20465;-71
2023/08/02 09:52:54;;;;;;;2.30;1.10;;;21.10;99.90;;;;;;4918475;29;20494;-71
2023/08/02 09:55:22;;;;;;;1.00;1.00;;;21.10;99.90;;;;;;4916071;29;20473;-70
2023/08/02 09:57:50;;;;;;;1.40;1.30;;;21.10;99.90;;;;;;4909334;29;20480;-72
2023/08/02 10:00:18;;;;;;;1.40;1.40;;;21.20;99.90;;;;;;4917251;29;20973;-71
2023/08/02 10:02:46;;;;;;;0.90;0.90;;;21.30;99.90;;;;;;4921364;29;20467;-71
2023/08/02 10:05:14;;;;;;;1.47;1.37;;;21.30;99.90;;;;;;4910013;29;20839;-71
2023/08/02 10:07:44;;;;;;;1.30;1.20;;;21.40;99.90;;;;;;4912784;29;20455;-71
2023/08/02 10:10:15;;;;;;;3.03;1.20;;;21.60;99.90;;;;;;4919096;29;20976;-71
2023/08/02 10:12:48;;;;;;;1.50;1.00;;;21.70;99.90;;;;;;4920088;29;20867;-71
2023/08/02 10:15:15;;;;;;;4.90;1.27;;;21.70;99.90;;;;;;4916799;29;20478;-71
2023/08/02 10:17:42;;;;;;;1.23;1.20;;;21.70;99.90;;;;;;4933446;23;20926;-70
2023/08/02 10:20:10;;;;;;;0.77;0.77;;;21.60;99.90;;;;;;4910507;29;20468;-70
2023/08/02 10:22:40;;;;;;;1.67;1.57;;;21.50;99.90;;;;;;4911280;29;20522;-70
2023/08/02 10:25:07;;;;;;;1.17;1.17;;;21.60;99.90;;;;;;4905444;29;20468;-70
2023/08/02 10:27:35;;;;;;;1.40;1.23;;;21.80;99.90;;;;;;4911289;29;20491;-71
2023/08/02 10:30:05;;;;;;;0.80;0.80;;;21.90;99.90;;;;;;4910815;29;20491;-70
2023/08/02 10:32:31;;;;;;;1.50;1.20;;;21.90;99.90;;;;;;4913462;29;21030;-70
2023/08/02 10:34:59;;;;;;;1.63;1.00;;;21.90;99.90;;;;;;4912074;29;20476;-70
2023/08/02 10:37:53;;;;;;;1.63;0.90;;;21.90;99.90;;;;;;4913626;29;20498;-69
2023/08/02 10:40:21;;;;;;;1.17;1.07;;;21.70;99.90;;;;;;4912212;29;20567;-70
2023/08/02 10:43:02;;;;;;;1.90;1.80;;;21.50;99.90;;;;;;4909598;29;20487;-70
2023/08/02 10:45:30;;;;;;;1.00;1.00;;;21.40;99.90;;;;;;4904795;29;20475;-70
2023/08/02 10:48:25;;;;;;;1.00;1.00;;;21.30;99.90;;;;;;4908007;29;20908;-70
2023/08/02 10:50:53;;;;;;;1.30;1.30;;;21.30;99.90;;;;;;4910280;29;20559;-70
2023/08/02 10:53:20;;;;;;;4.40;1.00;;;21.20;99.90;;;;;;4915982;29;20466;-69
2023/08/02 10:56:16;;;;;;;1.10;1.10;;;21.10;99.90;;;;;;4913434;29;20474;-70
2023/08/02 10:58:50;;;;;;;1.20;1.10;;;20.90;99.90;;;;;;4895932;29;21040;-70
2023/08/02 11:01:19;;;;;;;0.73;0.73;;;20.80;99.90;;;;;;4911883;29;20833;-70
2023/08/02 11:03:46;;;;;;;0.80;0.80;;;20.70;99.90;;;;;;4905398;29;20864;-70
2023/08/02 11:06:28;;;;;;;1.30;0.97;;;20.60;99.90;;;;;;4904140;29;20972;-70
2023/08/02 11:08:55;;;;;;;1.70;0.70;;;20.60;99.90;;;;;;4906189;29;20505;-70
2023/08/02 11:11:34;;;;;;;0.83;0.83;;;20.50;99.90;;;;;;4912452;29;20504;-69
2023/08/02 11:14:01;;;;;;;0.70;0.70;;;20.40;99.90;;;;;;4904744;29;20482;-70
2023/08/02 11:16:30;;;;;;;0.73;0.73;;;20.30;99.90;;;;;;4908255;29;20514;-70
2023/08/02 11:18:57;;;;;;;3.60;0.73;;;20.20;99.90;;;;;;4913836;29;20592;-70
2023/08/02 11:21:24;;;;;;;1.30;1.10;;;20.10;99.90;;;;;;4909989;29;20519;-70
2023/08/02 11:23:58;;;;;;;1.17;1.00;;;20.10;99.90;;;;;;4905116;29;20480;-70
2023/08/02 11:26:25;;;;;;;0.80;0.80;;;20.00;99.90;;;;;;4907530;29;20474;-70
2023/08/02 11:28:53;;;;;;;1.00;1.00;;;19.90;99.90;;;;;;4914930;29;20519;-69
2023/08/02 11:31:23;;;;;;;0.90;0.90;;;19.80;99.90;;;;;;4912720;29;20477;-69
2023/08/02 11:33:51;;;;;;;1.33;1.20;;;19.70;99.90;;;;;;4911192;29;20994;-70
2023/08/02 11:36:18;;;;;;;0.70;0.70;;;19.50;99.90;;;;;;4906810;29;20466;-69
2023/08/02 11:38:45;;;;;;;2.27;1.90;;;19.40;99.90;;;;;;4912196;29;20490;-69
2023/08/02 11:41:17;;;;;;;1.63;1.63;;;19.30;99.90;;;;;;4912283;29;20479;-69
2023/08/02 11:43:44;;;;;;;1.10;1.10;;;18.90;99.90;;;;;;4911010;29;20470;-69
2023/08/02 11:46:15;;;;;;;1.17;1.10;;;18.60;99.90;;;;;;4908637;29;20601;-69
2023/08/02 11:48:42;;;;;;;3.50;1.30;;;18.30;99.90;;;;;;4908869;29;20490;-69
2023/08/02 11:51:11;;;;;;;1.07;1.07;;;18.20;99.90;;;;;;4913338;29;20577;-69
2023/08/02 11:53:48;;;;;;;1.07;1.00;;;18.10;99.90;;;;;;4910009;29;20915;-69
2023/08/02 11:56:15;;;;;;;0.60;0.60;;;18.00;99.90;;;;;;4912976;29;20462;-69
2023/08/02 11:58:42;;;;;;;1.43;1.33;;;17.90;99.90;;;;;;4909079;29;20737;-69
2023/08/02 12:01:10;;;;;;;1.63;1.53;;;17.80;99.90;;;;;;4901249;29;20479;-69
2023/08/02 12:03:36;;;;;;;1.00;1.00;;;17.90;99.90;;;;;;4911622;29;20545;-70
2023/08/02 12:06:03;;;;;;;1.60;1.60;;;18.00;99.90;;;;;;4911243;29;20475;-69
2023/08/02 12:08:31;;;;;;;2.97;2.43;;;18.20;99.90;;;;;;4894352;29;20559;-69
2023/08/02 12:10:58;;;;;;;1.43;1.43;;;18.30;99.90;;;;;;4904863;29;20816;-69
2023/08/02 12:13:25;;;;;;;3.80;1.47;;;18.40;99.90;;;;;;4911067;29;20557;-70
2023/08/02 12:15:59;;;;;;;1.70;1.70;;;18.40;99.90;;;;;;4909944;29;20856;-70
2023/08/02 12:18:26;;;;;;;8.60;2.30;;;18.30;99.90;;;;;;4909738;29;20909;-68
2023/08/02 12:20:52;;;;;;;1.10;1.10;;;18.30;99.90;;;;;;4905998;29;20577;-69
2023/08/02 12:23:31;;;;;;;1.37;1.33;;;18.30;99.90;;;;;;4906724;29;20515;-69
2023/08/02 12:25:58;;;;;;;1.50;1.40;;;18.30;99.90;;;;;;4911780;29;20462;-69
2023/08/02 12:28:25;;;;;;;1.60;1.57;;;18.20;99.90;;;;;;4912614;29;20501;-69
2023/08/02 12:31:01;;;;;;;2.10;1.13;;;18.20;99.90;;;;;;4897539;29;21022;-69
2023/08/02 12:33:28;;;;;;;1.83;1.73;;;18.20;99.90;;;;;;4905776;29;20482;-69
2023/08/02 12:35:55;;;;;;;1.50;1.50;;;18.20;99.90;;;;;;4912675;29;20474;-69
2023/08/02 12:38:23;;;;;;;1.90;1.80;;;18.20;99.90;;;;;;4910721;29;20531;-69
2023/08/02 12:40:51;;;;;;;3.70;3.40;;;18.30;99.90;;;;;;4907488;29;20545;-70
2023/08/02 12:43:17;;;;;;;1.43;1.33;;;18.20;99.90;;;;;;4909662;29;20471;-69
2023/08/02 12:45:44;;;;;;;1.10;1.10;;;18.10;99.90;;;;;;4905829;29;20475;-69
2023/08/02 12:48:11;;;;;;;1.50;1.40;;;18.00;99.90;;;;;;4906160;29;20489;-69
2023/08/02 12:50:37;;;;;;;1.20;1.20;;;18.10;99.90;;;;;;4914004;29;20570;-70
2023/08/02 12:53:05;;;;;;;0.70;0.70;;;18.00;99.90;;;;;;4914090;29;20498;-69
2023/08/02 12:55:31;;;;;;;0.70;0.70;;;18.00;99.90;;;;;;4906991;29;21064;-69
2023/08/02 12:58:00;;;;;;;1.00;1.00;;;17.90;99.90;;;;;;4909440;29;21083;-68
2023/08/02 13:00:27;;;;;;;1.53;1.53;;;17.90;99.90;;;;;;4908262;29;20969;-68
2023/08/02 13:02:53;;;;;;;1.27;1.27;;;17.90;99.90;;;;;;4900862;29;20866;-67
2023/08/02 13:05:20;;;;;;;1.50;1.40;;;17.80;99.90;;;;;;4903128;29;20473;-68
2023/08/02 13:07:47;;;;;;;1.13;1.13;;;17.90;99.90;;;;;;4908993;29;20494;-69
2023/08/02 13:10:13;;;;;;;1.77;1.70;;;17.80;99.90;;;;;;4914082;29;20466;-68
2023/08/02 13:12:40;;;;;;;1.30;1.30;;;17.60;99.90;;;;;;4910127;29;21028;-68
2023/08/02 13:15:09;;;;;;;0.93;0.93;;;17.60;99.90;;;;;;4906429;29;20495;-69
2023/08/02 13:17:36;;;;;;;1.30;1.30;;;17.50;99.90;;;;;;4907405;29;20506;-69
2023/08/02 13:20:02;;;;;;;1.23;1.13;;;17.50;99.90;;;;;;4913363;29;20473;-69
2023/08/02 13:22:29;;;;;;;1.53;1.53;;;17.40;99.90;;;;;;4902119;29;20476;-68
2023/08/02 13:24:56;;;;;;;1.30;1.20;;;17.40;99.90;;;;;;4902796;29;21904;-68
2023/08/02 13:27:23;;;;;;;2.20;2.10;;;17.40;99.90;;;;;;4906676;29;20495;-68
2023/08/02 13:29:49;;;;;;;1.70;1.60;;;17.40;99.90;;;;;;4908892;29;20478;-68
2023/08/02 13:32:17;;;;;;;3.53;3.07;;;17.50;99.90;;;;;;4906128;29;20494;-70
2023/08/02 13:34:44;;;;;;;0.97;0.97;;;17.60;99.90;;;;;;4909349;29;20862;-68
2023/08/02 13:37:11;;;;;;;1.50;1.50;;;17.60;99.90;;;;;;4907424;29;20486;-68
2023/08/02 13:39:37;;;;;;;2.40;1.90;;;17.50;99.90;;;;;;4908125;29;20474;-68
2023/08/02 13:42:05;;;;;;;1.60;1.57;;;17.60;99.90;;;;;;4910292;29;20467;-68
2023/08/02 13:44:31;;;;;;;1.10;1.10;;;17.60;99.90;;;;;;4910896;29;20805;-70
2023/08/02 13:46:58;;;;;;;1.63;1.30;;;17.70;99.90;;;;;;4912093;29;20466;-69
2023/08/02 13:49:26;;;;;;;1.93;1.83;;;17.70;99.90;;;;;;4909904;29;20577;-70
2023/08/02 13:51:53;;;;;;;1.30;1.27;;;17.60;99.90;;;;;;4910534;29;20462;-69
2023/08/02 13:54:19;;;;;;;1.10;1.10;;;17.60;99.90;;;;;;4913384;29;20542;-69
2023/08/02 13:56:46;;;;;;;2.10;2.00;;;17.60;99.90;;;;;;4914148;29;20462;-67
2023/08/02 13:59:13;;;;;;;1.47;1.47;;;17.60;99.90;;;;;;4916755;29;20478;-69
2023/08/02 14:01:39;;;;;;;1.60;1.20;;;17.50;99.90;;;;;;4916887;29;20458;-68
2023/08/02 14:04:06;;;;;;;1.83;1.83;;;17.40;99.90;;;;;;4916845;29;20811;-69
2023/08/02 14:06:34;;;;;;;2.50;2.30;;;17.30;99.90;;;;;;4915761;29;20605;-68
2023/08/02 14:09:01;;;;;;;0.80;0.80;;;17.20;99.90;;;;;;4912537;29;20518;-69
2023/08/02 14:11:27;;;;;;;1.00;1.00;;;17.20;99.90;;;;;;4916581;29;20522;-68
2023/08/02 14:13:54;;;;;;;1.43;1.43;;;17.20;99.90;;;;;;4915960;29;21088;-68
2023/08/02 14:16:21;;;;;;;0.80;0.80;;;17.10;99.90;;;;;;4916358;29;20485;-68
2023/08/02 14:18:47;;;;;;;0.83;0.83;;;17.10;99.90;;;;;;4914406;29;21000;-68
2023/08/02 14:21:14;;;;;;;1.27;1.27;;;17.00;99.90;;;;;;4913281;29;20493;-68
2023/08/02 14:23:42;;;;;;;0.80;0.80;;;17.10;99.90;;;;;;4910292;29;20474;-68
2023/08/02 14:26:09;;;;;;;0.90;0.37;;;17.10;99.90;;;;;;4914727;29;20474;-68
2023/08/02 14:28:36;;;;;;;1.27;1.27;;;17.10;99.90;;;;;;4914225;29;20500;-69
2023/08/02 14:31:02;;;;;;;1.13;1.13;;;17.10;99.90;;;;;;4913890;29;20477;-68
2023/08/02 14:33:29;;;;;;;1.30;1.30;;;17.10;99.90;;;;;;4914459;29;20479;-68
2023/08/02 14:35:56;;;;;;;1.80;1.70;;;17.10;99.90;;;;;;4914703;29;20470;-68
2023/08/02 14:38:22;;;;;;;0.93;0.93;;;17.10;99.90;;;;;;4913724;29;20502;-68
2023/08/02 14:40:50;;;;;;;1.10;1.10;;;17.10;99.90;;;;;;4906941;29;20482;-67
2023/08/02 14:43:17;;;;;;;1.57;1.47;;;17.00;99.90;;;;;;4913842;29;20467;-67
2023/08/02 14:45:44;;;;;;;1.53;1.43;;;17.00;99.90;;;;;;4913561;29;20474;-68
2023/08/02 14:48:10;;;;;;;0.90;0.90;;;16.90;99.90;;;;;;4909584;29;20498;-67
2023/08/02 14:50:37;;;;;;;0.70;0.70;;;16.90;99.90;;;;;;4905291;29;20470;-67
2023/08/02 14:53:04;;;;;;;0.73;0.73;;;16.90;99.90;;;;;;4915194;29;20899;-67
2023/08/02 14:55:30;;;;;;;2.40;1.90;;;16.90;99.90;;;;;;4915411;29;20467;-69
2023/08/02 14:58:00;;;;;;;0.87;0.87;;;16.90;99.90;;;;;;4914459;29;20589;-70
2023/08/02 15:00:27;;;;;;;1.17;1.17;;;16.90;99.90;;;;;;4915711;29;20534;-67
2023/08/02 15:02:54;;;;;;;1.20;1.20;;;16.90;99.90;;;;;;4916158;29;20465;-68
2023/08/02 15:05:21;;;;;;;0.70;0.70;;;17.00;99.90;;;;;;4914776;29;20875;-69
2023/08/02 15:07:48;;;;;;;0.87;0.87;;;17.00;99.90;;;;;;4910897;29;20490;-69
2023/08/02 15:10:16;;;;;;;1.50;1.47;;;17.00;99.90;;;;;;4912184;29;20482;-68
2023/08/02 15:12:43;;;;;;;1.63;1.63;;;17.00;99.90;;;;;;4915295;29;20513;-69
2023/08/02 15:15:12;;;;;;;0.47;0.47;;;17.00;99.90;;;;;;4909130;29;20472;-69
2023/08/02 15:17:39;;;;;;;2.57;1.40;;;17.00;99.90;;;;;;4896249;29;20907;-68
2023/08/02 15:20:06;;;;;;;1.50;1.40;;;16.90;99.90;;;;;;4896093;29;20803;-69
2023/08/02 15:22:33;;;;;;;2.47;2.37;;;17.00;99.90;;;;;;4896238;29;20535;-68
2023/08/02 15:25:00;;;;;;;1.70;1.63;;;17.00;99.90;;;;;;4895540;29;20502;-68
2023/08/02 15:27:27;;;;;;;1.27;1.03;;;17.10;99.90;;;;;;4909735;29;20973;-68
2023/08/02 15:29:53;;;;;;;1.43;1.43;;;17.20;99.90;;;;;;4904590;29;20558;-68
2023/08/02 15:32:21;;;;;;;0.60;0.60;;;17.20;99.90;;;;;;4914764;29;20904;-68
2023/08/02 15:34:48;;;;;;;0.83;0.83;;;17.20;99.90;;;;;;4912315;29;20478;-69
2023/08/02 15:37:17;;;;;;;1.00;1.00;;;17.20;99.90;;;;;;4914788;29;20485;-68
2023/08/02 15:39:43;;;;;;;1.80;1.80;;;17.10;99.90;;;;;;4913249;29;20534;-69
2023/08/02 15:42:11;;;;;;;1.57;1.47;;;17.20;99.90;;;;;;4911565;29;20780;-69
2023/08/02 15:44:38;;;;;;;1.20;1.20;;;17.20;99.90;;;;;;4909311;29;20558;-68
2023/08/02 15:47:05;;;;;;;1.23;1.23;;;17.20;99.90;;;;;;4913184;29;20542;-68
2023/08/02 15:49:33;;;;;;;0.90;0.90;;;17.20;99.90;;;;;;4907817;29;20478;-69
2023/08/02 15:51:59;;;;;;;1.30;1.30;;;17.30;99.90;;;;;;4910953;29;20474;-67
2023/08/02 15:54:26;;;;;;;1.23;1.23;;;17.20;99.90;;;;;;4912805;29;20491;-68
2023/08/02 15:56:53;;;;;;;1.60;1.50;;;17.20;99.90;;;;;;4911542;29;20478;-68
2023/08/02 15:59:19;;;;;;;1.47;1.40;;;17.20;99.90;;;;;;4912102;29;20510;-68
2023/08/02 16:01:48;;;;;;;1.20;1.20;;;17.20;99.90;;;;;;4913084;29;20533;-68
2023/08/02 16:04:15;;;;;;;0.80;0.80;;;17.30;99.90;;;;;;4912592;29;20491;-68
2023/08/02 16:06:43;;;;;;;1.30;1.30;;;17.30;99.90;;;;;;4907904;29;20471;-68
2023/08/02 16:09:10;;;;;;;1.50;1.50;;;17.30;99.90;;;;;;4911189;29;20882;-68
2023/08/02 16:11:37;;;;;;;1.70;1.60;;;17.30;99.90;;;;;;4912800;29;20462;-68
2023/08/02 16:14:03;;;;;;;1.27;1.27;;;17.30;99.90;;;;;;4912333;29;20507;-68
2023/08/02 16:16:30;;;;;;;2.30;1.70;;;17.40;99.90;;;;;;4911460;29;20533;-68
2023/08/02 16:18:56;;;;;;;1.37;0.90;;;17.30;99.90;;;;;;4939449;23;20585;-70
2023/08/02 16:21:23;;;;;;;1.00;1.00;;;17.40;99.90;;;;;;4932471;29;20461;-70
2023/08/02 16:23:51;;;;;;;0.57;0.57;;;17.40;99.90;;;;;;4930078;29;20465;-72
2023/08/02 16:26:18;;;;;;;1.70;1.63;;;17.40;99.90;;;;;;4931944;29;20470;-72
2023/08/02 16:28:44;;;;;;;1.43;1.43;;;17.40;99.90;;;;;;4917096;29;20513;-72
2023/08/02 16:31:11;;;;;;;1.33;1.33;;;17.40;99.90;;;;;;4919452;23;20506;-68
2023/08/02 16:33:38;;;;;;;1.60;1.50;;;17.30;99.90;;;;;;4906381;29;20873;-70
2023/08/02 16:36:05;;;;;;;1.10;1.10;;;17.30;99.90;;;;;;4902450;29;20478;-70
2023/08/02 16:38:31;;;;;;;1.80;1.73;;;17.30;99.90;;;;;;4896569;29;20510;-68
2023/08/02 16:40:59;;;;;;;1.97;1.87;;;17.30;99.90;;;;;;4888425;29;20477;-69
2023/08/02 16:43:26;;;;;;;1.43;1.40;;;17.30;99.90;;;;;;4881819;29;20487;-68
2023/08/02 16:45:53;;;;;;;0.77;0.77;;;17.30;99.90;;;;;;4877770;29;20504;-69
2023/08/02 16:48:20;;;;;;;1.93;1.70;;;17.30;99.90;;;;;;4886747;29;20482;-69
2023/08/02 16:50:46;;;;;;;1.43;1.43;;;17.30;99.90;;;;;;4894821;29;20570;-70